sensor_id;sensor_type;location;lat;lon;timestamp;P1;durP1;ratioP1;P2;durP2;ratioP2
10303;SDS011;5197;48.152;8.590;2022-08-01T00:00:16;1.43;;;1.20;;
10303;SDS011;5197;48.152;8.590;2022-08-01T00:02:43;1.43;;;1.30;;
10303;SDS011;5197;48.152;8.590;2022-08-01T00:05:10;2.87;;;1.60;;
10303;SDS011;5197;48.152;8.590;2022-08-01T00:07:38;2.07;;;1.40;;
10303;SDS011;5197;48.152;8.590;2022-08-01T00:10:07;1.43;;;1.33;;
10303;SDS011;5197;48.152;8.590;2022-08-01T00:12:36;1.70;;;1.60;;
10303;SDS011;5197;48.152;8.590;2022-08-01T00:15:04;1.80;;;1.70;;
10303;SDS011;5197;48.152;8.590;2022-08-01T00:17:32;1.47;;;1.37;;
10303;SDS011;5197;48.152;8.590;2022-08-01T00:20:00;3.63;;;1.67;;
10303;SDS011;5197;48.152;8.590;2022-08-01T00:22:30;1.60;;;1.50;;
10303;SDS011;5197;48.152;8.590;2022-08-01T00:24:58;2.20;;;1.70;;
10303;SDS011;5197;48.152;8.590;2022-08-01T00:27:25;2.83;;;2.03;;
10303;SDS011;5197;48.152;8.590;2022-08-01T00:29:52;1.73;;;1.20;;
10303;SDS011;5197;48.152;8.590;2022-08-01T00:32:39;2.53;;;1.43;;
10303;SDS011;5197;48.152;8.590;2022-08-01T00:35:07;2.50;;;1.50;;
10303;SDS011;5197;48.152;8.590;2022-08-01T00:37:35;2.17;;;2.07;;
10303;SDS011;5197;48.152;8.590;2022-08-01T00:40:02;2.33;;;1.90;;
10303;SDS011;5197;48.152;8.590;2022-08-01T00:42:29;1.60;;;1.50;;
10303;SDS011;5197;48.152;8.590;2022-08-01T00:44:56;2.50;;;2.10;;
10303;SDS011;5197;48.152;8.590;2022-08-01T00:47:23;1.60;;;1.50;;
10303;SDS011;5197;48.152;8.590;2022-08-01T00:49:50;1.60;;;1.50;;
10303;SDS011;5197;48.152;8.590;2022-08-01T00:52:17;2.23;;;2.00;;
10303;SDS011;5197;48.152;8.590;2022-08-01T00:54:44;2.87;;;1.73;;
10303;SDS011;5197;48.152;8.590;2022-08-01T00:57:12;1.83;;;1.73;;
10303;SDS011;5197;48.152;8.590;2022-08-01T00:59:40;2.07;;;1.63;;
10303;SDS011;5197;48.152;8.590;2022-08-01T01:02:07;1.73;;;1.70;;
10303;SDS011;5197;48.152;8.590;2022-08-01T01:04:41;1.97;;;1.73;;
10303;SDS011;5197;48.152;8.590;2022-08-01T01:12:28;1.43;;;1.43;;
10303;SDS011;5197;48.152;8.590;2022-08-01T01:20:37;2.40;;;1.60;;
10303;SDS011;5197;48.152;8.590;2022-08-01T01:26:25;2.00;;;1.90;;
10303;SDS011;5197;48.152;8.590;2022-08-01T01:31:57;2.33;;;2.13;;
10303;SDS011;5197;48.152;8.590;2022-08-01T01:34:22;3.87;;;1.77;;
10303;SDS011;5197;48.152;8.590;2022-08-01T01:36:53;1.87;;;1.77;;
10303;SDS011;5197;48.152;8.590;2022-08-01T01:39:23;1.93;;;1.83;;
10303;SDS011;5197;48.152;8.590;2022-08-01T01:41:53;2.07;;;1.97;;
10303;SDS011;5197;48.152;8.590;2022-08-01T01:44:21;1.67;;;1.67;;
10303;SDS011;5197;48.152;8.590;2022-08-01T01:46:48;2.53;;;2.00;;
10303;SDS011;5197;48.152;8.590;2022-08-01T01:49:19;1.80;;;1.70;;
10303;SDS011;5197;48.152;8.590;2022-08-01T01:51:50;2.00;;;1.90;;
10303;SDS011;5197;48.152;8.590;2022-08-01T01:54:29;2.70;;;1.90;;
10303;SDS011;5197;48.152;8.590;2022-08-01T01:57:00;3.57;;;2.10;;
10303;SDS011;5197;48.152;8.590;2022-08-01T01:59:31;1.87;;;1.77;;
10303;SDS011;5197;48.152;8.590;2022-08-01T02:02:02;1.43;;;1.43;;
10303;SDS011;5197;48.152;8.590;2022-08-01T02:04:39;2.23;;;1.80;;
10303;SDS011;5197;48.152;8.590;2022-08-01T02:07:12;1.93;;;1.83;;
10303;SDS011;5197;48.152;8.590;2022-08-01T02:09:50;2.77;;;1.60;;
10303;SDS011;5197;48.152;8.590;2022-08-01T02:12:19;1.90;;;1.80;;
10303;SDS011;5197;48.152;8.590;2022-08-01T02:14:48;1.90;;;1.80;;
10303;SDS011;5197;48.152;8.590;2022-08-01T02:17:17;2.03;;;1.93;;
10303;SDS011;5197;48.152;8.590;2022-08-01T02:19:46;1.60;;;1.60;;
10303;SDS011;5197;48.152;8.590;2022-08-01T02:22:16;2.30;;;2.20;;
10303;SDS011;5197;48.152;8.590;2022-08-01T02:24:51;3.23;;;2.20;;
10303;SDS011;5197;48.152;8.590;2022-08-01T02:27:33;2.90;;;2.10;;
10303;SDS011;5197;48.152;8.590;2022-08-01T02:30:05;2.00;;;1.90;;
10303;SDS011;5197;48.152;8.590;2022-08-01T02:32:36;2.13;;;2.03;;
10303;SDS011;5197;48.152;8.590;2022-08-01T02:35:09;2.30;;;2.10;;
10303;SDS011;5197;48.152;8.590;2022-08-01T02:37:41;2.20;;;2.10;;
10303;SDS011;5197;48.152;8.590;2022-08-01T02:40:12;4.10;;;2.67;;
10303;SDS011;5197;48.152;8.590;2022-08-01T02:42:45;2.00;;;1.90;;
10303;SDS011;5197;48.152;8.590;2022-08-01T02:45:17;2.50;;;2.30;;
10303;SDS011;5197;48.152;8.590;2022-08-01T02:47:47;2.30;;;2.10;;
10303;SDS011;5197;48.152;8.590;2022-08-01T02:50:16;2.80;;;2.10;;
10303;SDS011;5197;48.152;8.590;2022-08-01T02:52:46;2.40;;;2.20;;
10303;SDS011;5197;48.152;8.590;2022-08-01T02:55:15;2.70;;;2.50;;
10303;SDS011;5197;48.152;8.590;2022-08-01T02:57:45;2.10;;;2.00;;
10303;SDS011;5197;48.152;8.590;2022-08-01T03:00:21;2.37;;;2.27;;
10303;SDS011;5197;48.152;8.590;2022-08-01T03:02:51;2.57;;;2.10;;
10303;SDS011;5197;48.152;8.590;2022-08-01T03:05:21;2.20;;;2.10;;
10303;SDS011;5197;48.152;8.590;2022-08-01T03:07:51;3.20;;;2.60;;
10303;SDS011;5197;48.152;8.590;2022-08-01T03:10:19;2.60;;;2.40;;
10303;SDS011;5197;48.152;8.590;2022-08-01T03:12:47;2.27;;;2.17;;
10303;SDS011;5197;48.152;8.590;2022-08-01T03:15:16;2.37;;;2.27;;
10303;SDS011;5197;48.152;8.590;2022-08-01T03:17:44;4.10;;;2.30;;
10303;SDS011;5197;48.152;8.590;2022-08-01T03:20:14;2.97;;;2.20;;
10303;SDS011;5197;48.152;8.590;2022-08-01T03:22:43;2.40;;;2.30;;
10303;SDS011;5197;48.152;8.590;2022-08-01T03:25:11;1.83;;;1.83;;
10303;SDS011;5197;48.152;8.590;2022-08-01T03:27:42;2.43;;;2.20;;
10303;SDS011;5197;48.152;8.590;2022-08-01T03:30:11;2.53;;;2.33;;
10303;SDS011;5197;48.152;8.590;2022-08-01T03:32:39;2.50;;;2.30;;
10303;SDS011;5197;48.152;8.590;2022-08-01T03:35:07;2.60;;;2.40;;
10303;SDS011;5197;48.152;8.590;2022-08-01T03:37:34;2.80;;;2.60;;
10303;SDS011;5197;48.152;8.590;2022-08-01T03:40:28;2.53;;;2.43;;
10303;SDS011;5197;48.152;8.590;2022-08-01T03:43:04;2.20;;;2.10;;
10303;SDS011;5197;48.152;8.590;2022-08-01T03:45:35;2.40;;;2.20;;
10303;SDS011;5197;48.152;8.590;2022-08-01T03:48:06;4.50;;;2.40;;
10303;SDS011;5197;48.152;8.590;2022-08-01T03:50:37;2.37;;;2.20;;
10303;SDS011;5197;48.152;8.590;2022-08-01T03:53:09;3.33;;;2.57;;
10303;SDS011;5197;48.152;8.590;2022-08-01T03:55:37;2.87;;;2.47;;
10303;SDS011;5197;48.152;8.590;2022-08-01T03:58:07;2.27;;;2.13;;
10303;SDS011;5197;48.152;8.590;2022-08-01T04:00:38;3.50;;;2.63;;
10303;SDS011;5197;48.152;8.590;2022-08-01T04:03:07;2.60;;;2.50;;
10303;SDS011;5197;48.152;8.590;2022-08-01T04:05:35;3.53;;;2.67;;
10303;SDS011;5197;48.152;8.590;2022-08-01T04:08:02;5.60;;;2.83;;
10303;SDS011;5197;48.152;8.590;2022-08-01T04:10:29;2.70;;;2.50;;
10303;SDS011;5197;48.152;8.590;2022-08-01T04:12:56;3.73;;;2.30;;
10303;SDS011;5197;48.152;8.590;2022-08-01T04:15:23;2.40;;;2.27;;
10303;SDS011;5197;48.152;8.590;2022-08-01T04:17:50;4.53;;;2.50;;
10303;SDS011;5197;48.152;8.590;2022-08-01T04:20:17;2.90;;;2.63;;
10303;SDS011;5197;48.152;8.590;2022-08-01T04:22:44;3.00;;;2.20;;
10303;SDS011;5197;48.152;8.590;2022-08-01T04:25:33;2.90;;;2.60;;
10303;SDS011;5197;48.152;8.590;2022-08-01T04:28:00;3.27;;;2.60;;
10303;SDS011;5197;48.152;8.590;2022-08-01T04:30:33;3.00;;;2.37;;
10303;SDS011;5197;48.152;8.590;2022-08-01T04:33:02;2.60;;;2.50;;
10303;SDS011;5197;48.152;8.590;2022-08-01T04:35:33;2.70;;;2.50;;
10303;SDS011;5197;48.152;8.590;2022-08-01T04:38:23;2.70;;;2.50;;
10303;SDS011;5197;48.152;8.590;2022-08-01T04:40:55;3.67;;;2.50;;
10303;SDS011;5197;48.152;8.590;2022-08-01T04:43:23;4.07;;;2.17;;
10303;SDS011;5197;48.152;8.590;2022-08-01T04:45:50;2.47;;;2.37;;
10303;SDS011;5197;48.152;8.590;2022-08-01T04:48:18;4.90;;;2.70;;
10303;SDS011;5197;48.152;8.590;2022-08-01T04:50:48;2.47;;;2.37;;
10303;SDS011;5197;48.152;8.590;2022-08-01T04:53:17;3.80;;;2.87;;
10303;SDS011;5197;48.152;8.590;2022-08-01T04:55:48;4.00;;;2.60;;
10303;SDS011;5197;48.152;8.590;2022-08-01T04:58:15;3.20;;;3.00;;
10303;SDS011;5197;48.152;8.590;2022-08-01T05:00:44;2.53;;;2.33;;
10303;SDS011;5197;48.152;8.590;2022-08-01T05:03:12;3.37;;;2.80;;
10303;SDS011;5197;48.152;8.590;2022-08-01T05:05:39;2.93;;;2.73;;
10303;SDS011;5197;48.152;8.590;2022-08-01T05:08:06;3.70;;;2.70;;
10303;SDS011;5197;48.152;8.590;2022-08-01T05:10:33;6.60;;;2.50;;
10303;SDS011;5197;48.152;8.590;2022-08-01T05:13:01;2.77;;;2.57;;
10303;SDS011;5197;48.152;8.590;2022-08-01T05:15:28;3.07;;;2.77;;
10303;SDS011;5197;48.152;8.590;2022-08-01T05:17:55;2.80;;;2.50;;
10303;SDS011;5197;48.152;8.590;2022-08-01T05:20:22;2.80;;;2.60;;
10303;SDS011;5197;48.152;8.590;2022-08-01T05:22:49;3.33;;;2.70;;
10303;SDS011;5197;48.152;8.590;2022-08-01T05:25:16;4.23;;;2.80;;
10303;SDS011;5197;48.152;8.590;2022-08-01T05:27:50;2.90;;;2.57;;
10303;SDS011;5197;48.152;8.590;2022-08-01T05:30:17;3.70;;;2.50;;
10303;SDS011;5197;48.152;8.590;2022-08-01T05:32:44;2.60;;;2.40;;
10303;SDS011;5197;48.152;8.590;2022-08-01T05:35:11;2.90;;;2.70;;
10303;SDS011;5197;48.152;8.590;2022-08-01T05:37:38;3.00;;;2.80;;
10303;SDS011;5197;48.152;8.590;2022-08-01T05:40:05;3.87;;;2.73;;
10303;SDS011;5197;48.152;8.590;2022-08-01T05:42:32;2.80;;;2.70;;
10303;SDS011;5197;48.152;8.590;2022-08-01T05:45:00;5.40;;;2.77;;
10303;SDS011;5197;48.152;8.590;2022-08-01T05:47:27;3.77;;;2.53;;
10303;SDS011;5197;48.152;8.590;2022-08-01T05:49:54;6.70;;;2.60;;
10303;SDS011;5197;48.152;8.590;2022-08-01T05:52:21;3.30;;;2.73;;
10303;SDS011;5197;48.152;8.590;2022-08-01T05:54:48;2.90;;;2.63;;
10303;SDS011;5197;48.152;8.590;2022-08-01T05:57:15;4.67;;;2.77;;
10303;SDS011;5197;48.152;8.590;2022-08-01T05:59:42;2.97;;;2.40;;
10303;SDS011;5197;48.152;8.590;2022-08-01T06:02:09;6.53;;;3.00;;
10303;SDS011;5197;48.152;8.590;2022-08-01T06:04:36;2.57;;;2.23;;
10303;SDS011;5197;48.152;8.590;2022-08-01T06:07:03;2.93;;;2.60;;
10303;SDS011;5197;48.152;8.590;2022-08-01T06:09:30;4.05;;;2.35;;
10303;SDS011;5197;48.152;8.590;2022-08-01T06:11:57;2.75;;;2.42;;
10303;SDS011;5197;48.152;8.590;2022-08-01T06:14:24;2.88;;;2.40;;
10303;SDS011;5197;48.152;8.590;2022-08-01T06:16:51;9.32;;;2.45;;
10303;SDS011;5197;48.152;8.590;2022-08-01T06:19:18;2.53;;;2.30;;
10303;SDS011;5197;48.152;8.590;2022-08-01T06:21:46;2.10;;;2.00;;
10303;SDS011;5197;48.152;8.590;2022-08-01T06:24:13;2.10;;;1.90;;
10303;SDS011;5197;48.152;8.590;2022-08-01T06:26:40;2.72;;;2.22;;
10303;SDS011;5197;48.152;8.590;2022-08-01T06:29:07;2.58;;;2.00;;
10303;SDS011;5197;48.152;8.590;2022-08-01T06:31:35;2.58;;;2.20;;
10303;SDS011;5197;48.152;8.590;2022-08-01T06:34:02;2.38;;;2.10;;
10303;SDS011;5197;48.152;8.590;2022-08-01T06:36:29;3.60;;;2.40;;
10303;SDS011;5197;48.152;8.590;2022-08-01T06:38:56;10.63;;;2.70;;
10303;SDS011;5197;48.152;8.590;2022-08-01T06:41:23;12.98;;;2.70;;
10303;SDS011;5197;48.152;8.590;2022-08-01T06:43:50;2.40;;;1.95;;
10303;SDS011;5197;48.152;8.590;2022-08-01T06:46:17;2.75;;;2.35;;
10303;SDS011;5197;48.152;8.590;2022-08-01T06:48:44;2.80;;;1.88;;
10303;SDS011;5197;48.152;8.590;2022-08-01T06:51:11;2.20;;;2.10;;
10303;SDS011;5197;48.152;8.590;2022-08-01T06:53:41;4.00;;;2.40;;
10303;SDS011;5197;48.152;8.590;2022-08-01T06:56:10;4.07;;;2.40;;
10303;SDS011;5197;48.152;8.590;2022-08-01T06:58:37;4.22;;;2.97;;
10303;SDS011;5197;48.152;8.590;2022-08-01T07:01:04;4.25;;;2.60;;
10303;SDS011;5197;48.152;8.590;2022-08-01T07:03:33;3.10;;;2.80;;
10303;SDS011;5197;48.152;8.590;2022-08-01T07:06:23;3.40;;;3.10;;
10303;SDS011;5197;48.152;8.590;2022-08-01T07:08:54;2.85;;;2.72;;
10303;SDS011;5197;48.152;8.590;2022-08-01T07:11:21;3.28;;;3.08;;
10303;SDS011;5197;48.152;8.590;2022-08-01T07:13:50;8.55;;;3.15;;
10303;SDS011;5197;48.152;8.590;2022-08-01T07:16:16;4.93;;;3.00;;
10303;SDS011;5197;48.152;8.590;2022-08-01T07:18:44;5.30;;;3.20;;
10303;SDS011;5197;48.152;8.590;2022-08-01T07:21:11;3.47;;;2.70;;
10303;SDS011;5197;48.152;8.590;2022-08-01T07:23:58;2.88;;;2.60;;
10303;SDS011;5197;48.152;8.590;2022-08-01T07:26:25;2.90;;;2.70;;
10303;SDS011;5197;48.152;8.590;2022-08-01T07:28:53;2.85;;;2.65;;
10303;SDS011;5197;48.152;8.590;2022-08-01T07:31:20;4.40;;;2.50;;
10303;SDS011;5197;48.152;8.590;2022-08-01T07:33:47;3.35;;;3.08;;
10303;SDS011;5197;48.152;8.590;2022-08-01T07:36:15;3.28;;;2.80;;
10303;SDS011;5197;48.152;8.590;2022-08-01T07:38:43;5.22;;;2.85;;
10303;SDS011;5197;48.152;8.590;2022-08-01T07:41:10;3.90;;;2.72;;
10303;SDS011;5197;48.152;8.590;2022-08-01T07:43:37;2.70;;;2.50;;
10303;SDS011;5197;48.152;8.590;2022-08-01T07:46:04;3.92;;;3.33;;
10303;SDS011;5197;48.152;8.590;2022-08-01T07:48:32;2.80;;;2.60;;
10303;SDS011;5197;48.152;8.590;2022-08-01T07:50:59;3.25;;;2.80;;
10303;SDS011;5197;48.152;8.590;2022-08-01T07:53:26;2.75;;;2.55;;
10303;SDS011;5197;48.152;8.590;2022-08-01T07:55:53;3.42;;;2.67;;
10303;SDS011;5197;48.152;8.590;2022-08-01T07:58:20;2.83;;;2.63;;
10303;SDS011;5197;48.152;8.590;2022-08-01T08:00:47;3.58;;;3.00;;
10303;SDS011;5197;48.152;8.590;2022-08-01T08:03:14;3.20;;;3.00;;
10303;SDS011;5197;48.152;8.590;2022-08-01T08:05:41;4.57;;;2.72;;
10303;SDS011;5197;48.152;8.590;2022-08-01T08:08:25;3.10;;;2.85;;
10303;SDS011;5197;48.152;8.590;2022-08-01T08:10:53;4.50;;;2.55;;
10303;SDS011;5197;48.152;8.590;2022-08-01T08:13:20;2.85;;;2.65;;
10303;SDS011;5197;48.152;8.590;2022-08-01T08:15:47;4.18;;;2.40;;
10303;SDS011;5197;48.152;8.590;2022-08-01T08:18:14;2.58;;;2.38;;
10303;SDS011;5197;48.152;8.590;2022-08-01T08:20:42;2.72;;;2.63;;
10303;SDS011;5197;48.152;8.590;2022-08-01T08:23:09;2.55;;;2.45;;
10303;SDS011;5197;48.152;8.590;2022-08-01T08:26:12;4.63;;;2.70;;
10303;SDS011;5197;48.152;8.590;2022-08-01T08:28:39;2.70;;;2.50;;
10303;SDS011;5197;48.152;8.590;2022-08-01T08:31:06;3.00;;;2.80;;
10303;SDS011;5197;48.152;8.590;2022-08-01T08:33:54;2.67;;;2.58;;
10303;SDS011;5197;48.152;8.590;2022-08-01T08:36:21;4.30;;;2.80;;
10303;SDS011;5197;48.152;8.590;2022-08-01T08:38:56;2.88;;;2.67;;
10303;SDS011;5197;48.152;8.590;2022-08-01T08:41:25;3.53;;;2.30;;
10303;SDS011;5197;48.152;8.590;2022-08-01T08:44:07;3.20;;;2.30;;
10303;SDS011;5197;48.152;8.590;2022-08-01T08:46:42;2.58;;;2.38;;
10303;SDS011;5197;48.152;8.590;2022-08-01T08:49:12;2.63;;;2.45;;
10303;SDS011;5197;48.152;8.590;2022-08-01T08:51:42;2.20;;;2.10;;
10303;SDS011;5197;48.152;8.590;2022-08-01T08:54:10;2.40;;;2.30;;
10303;SDS011;5197;48.152;8.590;2022-08-01T08:56:39;3.95;;;2.22;;
10303;SDS011;5197;48.152;8.590;2022-08-01T08:59:06;2.72;;;2.53;;
10303;SDS011;5197;48.152;8.590;2022-08-01T09:01:34;2.53;;;2.33;;
10303;SDS011;5197;48.152;8.590;2022-08-01T09:04:02;2.35;;;2.22;;
10303;SDS011;5197;48.152;8.590;2022-08-01T09:06:30;2.65;;;2.00;;
10303;SDS011;5197;48.152;8.590;2022-08-01T09:08:58;2.33;;;2.22;;
10303;SDS011;5197;48.152;8.590;2022-08-01T09:11:25;4.45;;;2.17;;
10303;SDS011;5197;48.152;8.590;2022-08-01T09:14:02;2.22;;;2.13;;
10303;SDS011;5197;48.152;8.590;2022-08-01T09:16:35;2.70;;;2.50;;
10303;SDS011;5197;48.152;8.590;2022-08-01T09:19:14;4.85;;;2.67;;
10303;SDS011;5197;48.152;8.590;2022-08-01T09:22:07;2.17;;;2.08;;
10303;SDS011;5197;48.152;8.590;2022-08-01T09:24:36;5.03;;;2.22;;
10303;SDS011;5197;48.152;8.590;2022-08-01T09:27:16;2.60;;;2.40;;
10303;SDS011;5197;48.152;8.590;2022-08-01T09:29:48;2.20;;;2.10;;
10303;SDS011;5197;48.152;8.590;2022-08-01T09:32:30;2.38;;;2.17;;
10303;SDS011;5197;48.152;8.590;2022-08-01T09:43:19;2.30;;;2.10;;
10303;SDS011;5197;48.152;8.590;2022-08-01T09:45:47;2.25;;;2.15;;
10303;SDS011;5197;48.152;8.590;2022-08-01T09:48:19;2.50;;;2.00;;
10303;SDS011;5197;48.152;8.590;2022-08-01T09:50:53;2.70;;;2.00;;
10303;SDS011;5197;48.152;8.590;2022-08-01T09:53:20;2.20;;;2.10;;
10303;SDS011;5197;48.152;8.590;2022-08-01T09:56:08;2.60;;;1.90;;
10303;SDS011;5197;48.152;8.590;2022-08-01T10:01:28;2.10;;;2.00;;
10303;SDS011;5197;48.152;8.590;2022-08-01T10:04:11;5.10;;;2.20;;
10303;SDS011;5197;48.152;8.590;2022-08-01T10:06:47;4.63;;;2.05;;
10303;SDS011;5197;48.152;8.590;2022-08-01T10:09:28;2.45;;;2.00;;
10303;SDS011;5197;48.152;8.590;2022-08-01T10:12:06;2.33;;;2.13;;
10303;SDS011;5197;48.152;8.590;2022-08-01T10:14:41;4.80;;;2.30;;
10303;SDS011;5197;48.152;8.590;2022-08-01T10:17:13;1.90;;;1.73;;
10303;SDS011;5197;48.152;8.590;2022-08-01T10:19:45;2.05;;;1.95;;
10303;SDS011;5197;48.152;8.590;2022-08-01T10:22:13;2.35;;;2.00;;
10303;SDS011;5197;48.152;8.590;2022-08-01T10:24:44;2.38;;;1.90;;
10303;SDS011;5197;48.152;8.590;2022-08-01T10:27:14;2.00;;;1.90;;
10303;SDS011;5197;48.152;8.590;2022-08-01T10:30:03;1.83;;;1.73;;
10303;SDS011;5197;48.152;8.590;2022-08-01T10:32:47;3.20;;;1.80;;
10303;SDS011;5197;48.152;8.590;2022-08-01T10:35:16;4.13;;;1.92;;
10303;SDS011;5197;48.152;8.590;2022-08-01T10:38:05;1.90;;;1.70;;
10303;SDS011;5197;48.152;8.590;2022-08-01T10:40:36;1.52;;;1.40;;
10303;SDS011;5197;48.152;8.590;2022-08-01T10:43:05;1.85;;;1.75;;
10303;SDS011;5197;48.152;8.590;2022-08-01T10:45:33;1.55;;;1.48;;
10303;SDS011;5197;48.152;8.590;2022-08-01T10:48:04;1.60;;;1.50;;
10303;SDS011;5197;48.152;8.590;2022-08-01T10:50:42;2.90;;;1.40;;
10303;SDS011;5197;48.152;8.590;2022-08-01T10:53:15;1.70;;;1.58;;
10303;SDS011;5197;48.152;8.590;2022-08-01T10:58:33;1.70;;;1.60;;
10303;SDS011;5197;48.152;8.590;2022-08-01T11:01:25;1.52;;;1.50;;
10303;SDS011;5197;48.152;8.590;2022-08-01T11:04:02;2.00;;;1.30;;
10303;SDS011;5197;48.152;8.590;2022-08-01T11:06:46;1.00;;;1.00;;
10303;SDS011;5197;48.152;8.590;2022-08-01T11:09:42;1.50;;;1.40;;
10303;SDS011;5197;48.152;8.590;2022-08-01T11:12:17;1.20;;;1.20;;
10303;SDS011;5197;48.152;8.590;2022-08-01T11:17:44;1.38;;;1.27;;
10303;SDS011;5197;48.152;8.590;2022-08-01T11:20:27;3.28;;;1.33;;
10303;SDS011;5197;48.152;8.590;2022-08-01T11:28:25;2.28;;;1.52;;
10303;SDS011;5197;48.152;8.590;2022-08-01T11:41:26;1.65;;;1.55;;
10303;SDS011;5197;48.152;8.590;2022-08-01T11:44:05;1.25;;;1.20;;
10303;SDS011;5197;48.152;8.590;2022-08-01T11:49:22;1.83;;;1.30;;
10303;SDS011;5197;48.152;8.590;2022-08-01T11:54:37;1.25;;;1.20;;
10303;SDS011;5197;48.152;8.590;2022-08-01T11:59:58;1.00;;;1.00;;
10303;SDS011;5197;48.152;8.590;2022-08-01T12:02:30;1.25;;;1.10;;
10303;SDS011;5197;48.152;8.590;2022-08-01T12:07:28;1.02;;;1.02;;
10303;SDS011;5197;48.152;8.590;2022-08-01T12:10:08;1.20;;;1.20;;
10303;SDS011;5197;48.152;8.590;2022-08-01T12:12:37;1.15;;;1.08;;
10303;SDS011;5197;48.152;8.590;2022-08-01T12:15:09;1.15;;;1.02;;
10303;SDS011;5197;48.152;8.590;2022-08-01T12:20:08;2.33;;;1.48;;
10303;SDS011;5197;48.152;8.590;2022-08-01T12:22:36;3.00;;;1.42;;
10303;SDS011;5197;48.152;8.590;2022-08-01T12:27:34;2.33;;;1.30;;
10303;SDS011;5197;48.152;8.590;2022-08-01T12:30:03;1.27;;;1.17;;
10303;SDS011;5197;48.152;8.590;2022-08-01T12:32:33;1.00;;;0.90;;
10303;SDS011;5197;48.152;8.590;2022-08-01T12:35:10;3.65;;;1.35;;
10303;SDS011;5197;48.152;8.590;2022-08-01T12:37:47;2.78;;;1.30;;
10303;SDS011;5197;48.152;8.590;2022-08-01T12:40:21;2.97;;;1.52;;
10303;SDS011;5197;48.152;8.590;2022-08-01T12:42:54;7.43;;;1.63;;
10303;SDS011;5197;48.152;8.590;2022-08-01T12:45:34;1.30;;;1.23;;
10303;SDS011;5197;48.152;8.590;2022-08-01T12:48:19;2.50;;;1.50;;
10303;SDS011;5197;48.152;8.590;2022-08-01T12:50:48;1.38;;;1.35;;
10303;SDS011;5197;48.152;8.590;2022-08-01T12:53:16;3.08;;;1.20;;
10303;SDS011;5197;48.152;8.590;2022-08-01T12:55:50;1.20;;;1.15;;
10303;SDS011;5197;48.152;8.590;2022-08-01T12:58:34;1.40;;;0.95;;
10303;SDS011;5197;48.152;8.590;2022-08-01T13:01:03;3.42;;;1.38;;
10303;SDS011;5197;48.152;8.590;2022-08-01T13:03:35;1.40;;;1.30;;
10303;SDS011;5197;48.152;8.590;2022-08-01T13:06:09;0.50;;;0.50;;
10303;SDS011;5197;48.152;8.590;2022-08-01T13:08:42;2.10;;;1.30;;
10303;SDS011;5197;48.152;8.590;2022-08-01T13:11:11;1.13;;;0.98;;
10303;SDS011;5197;48.152;8.590;2022-08-01T13:13:45;1.52;;;1.40;;
10303;SDS011;5197;48.152;8.590;2022-08-01T13:16:24;2.53;;;1.20;;
10303;SDS011;5197;48.152;8.590;2022-08-01T13:19:12;1.23;;;1.23;;
10303;SDS011;5197;48.152;8.590;2022-08-01T13:21:52;2.67;;;1.25;;
10303;SDS011;5197;48.152;8.590;2022-08-01T13:24:28;1.38;;;1.30;;
10303;SDS011;5197;48.152;8.590;2022-08-01T13:26:59;4.32;;;1.60;;
10303;SDS011;5197;48.152;8.590;2022-08-01T13:29:35;3.53;;;1.60;;
10303;SDS011;5197;48.152;8.590;2022-08-01T13:32:19;1.55;;;1.48;;
10303;SDS011;5197;48.152;8.590;2022-08-01T13:35:02;1.75;;;1.65;;
10303;SDS011;5197;48.152;8.590;2022-08-01T13:37:32;0.85;;;0.85;;
10303;SDS011;5197;48.152;8.590;2022-08-01T13:39:59;1.73;;;1.63;;
10303;SDS011;5197;48.152;8.590;2022-08-01T13:42:26;1.60;;;1.50;;
10303;SDS011;5197;48.152;8.590;2022-08-01T13:44:55;1.73;;;1.63;;
10303;SDS011;5197;48.152;8.590;2022-08-01T13:47:22;1.50;;;1.50;;
10303;SDS011;5197;48.152;8.590;2022-08-01T13:49:57;1.75;;;1.70;;
10303;SDS011;5197;48.152;8.590;2022-08-01T13:52:28;1.88;;;1.77;;
10303;SDS011;5197;48.152;8.590;2022-08-01T13:54:56;3.10;;;1.58;;
10303;SDS011;5197;48.152;8.590;2022-08-01T13:57:23;1.10;;;1.10;;
10303;SDS011;5197;48.152;8.590;2022-08-01T13:59:50;2.80;;;1.60;;
10303;SDS011;5197;48.152;8.590;2022-08-01T14:02:19;8.57;;;1.70;;
10303;SDS011;5197;48.152;8.590;2022-08-01T14:04:46;5.00;;;1.73;;
10303;SDS011;5197;48.152;8.590;2022-08-01T14:07:13;3.00;;;1.80;;
10303;SDS011;5197;48.152;8.590;2022-08-01T14:09:40;4.53;;;1.73;;
10303;SDS011;5197;48.152;8.590;2022-08-01T14:12:28;6.60;;;1.60;;
10303;SDS011;5197;48.152;8.590;2022-08-01T14:14:55;3.70;;;1.60;;
10303;SDS011;5197;48.152;8.590;2022-08-01T14:17:22;1.55;;;1.45;;
10303;SDS011;5197;48.152;8.590;2022-08-01T14:19:49;2.15;;;1.63;;
10303;SDS011;5197;48.152;8.590;2022-08-01T14:22:16;1.83;;;1.70;;
10303;SDS011;5197;48.152;8.590;2022-08-01T14:24:43;1.80;;;1.55;;
10303;SDS011;5197;48.152;8.590;2022-08-01T14:27:10;1.75;;;1.70;;
10303;SDS011;5197;48.152;8.590;2022-08-01T14:29:37;4.88;;;2.05;;
10303;SDS011;5197;48.152;8.590;2022-08-01T14:32:24;2.83;;;1.77;;
10303;SDS011;5197;48.152;8.590;2022-08-01T14:34:54;2.05;;;1.73;;
10303;SDS011;5197;48.152;8.590;2022-08-01T14:37:23;1.70;;;1.60;;
10303;SDS011;5197;48.152;8.590;2022-08-01T14:39:56;1.70;;;1.60;;
10303;SDS011;5197;48.152;8.590;2022-08-01T14:42:24;1.90;;;1.80;;
10303;SDS011;5197;48.152;8.590;2022-08-01T14:44:52;2.10;;;1.80;;
10303;SDS011;5197;48.152;8.590;2022-08-01T14:47:19;4.40;;;1.98;;
10303;SDS011;5197;48.152;8.590;2022-08-01T14:49:47;1.83;;;1.73;;
10303;SDS011;5197;48.152;8.590;2022-08-01T14:52:15;3.05;;;1.90;;
10303;SDS011;5197;48.152;8.590;2022-08-01T14:54:43;1.92;;;1.83;;
10303;SDS011;5197;48.152;8.590;2022-08-01T14:57:10;2.38;;;2.17;;
10303;SDS011;5197;48.152;8.590;2022-08-01T14:59:37;2.67;;;2.00;;
10303;SDS011;5197;48.152;8.590;2022-08-01T15:02:04;3.80;;;1.67;;
10303;SDS011;5197;48.152;8.590;2022-08-01T15:04:31;2.95;;;2.03;;
10303;SDS011;5197;48.152;8.590;2022-08-01T15:06:58;3.22;;;2.40;;
10303;SDS011;5197;48.152;8.590;2022-08-01T15:09:25;1.80;;;1.77;;
10303;SDS011;5197;48.152;8.590;2022-08-01T15:11:52;1.95;;;1.85;;
10303;SDS011;5197;48.152;8.590;2022-08-01T15:14:19;2.65;;;1.92;;
10303;SDS011;5197;48.152;8.590;2022-08-01T15:17:05;2.80;;;1.67;;
10303;SDS011;5197;48.152;8.590;2022-08-01T15:19:34;2.10;;;2.00;;
10303;SDS011;5197;48.152;8.590;2022-08-01T15:22:07;1.92;;;1.83;;
10303;SDS011;5197;48.152;8.590;2022-08-01T15:24:34;2.15;;;2.05;;
10303;SDS011;5197;48.152;8.590;2022-08-01T15:27:01;2.05;;;1.92;;
10303;SDS011;5197;48.152;8.590;2022-08-01T15:29:29;1.98;;;1.88;;
10303;SDS011;5197;48.152;8.590;2022-08-01T15:31:56;2.13;;;2.03;;
10303;SDS011;5197;48.152;8.590;2022-08-01T15:34:24;2.28;;;2.17;;
10303;SDS011;5197;48.152;8.590;2022-08-01T15:36:51;2.20;;;2.10;;
10303;SDS011;5197;48.152;8.590;2022-08-01T15:39:18;2.17;;;2.08;;
10303;SDS011;5197;48.152;8.590;2022-08-01T15:41:45;3.85;;;2.38;;
10303;SDS011;5197;48.152;8.590;2022-08-01T15:44:12;2.45;;;2.17;;
10303;SDS011;5197;48.152;8.590;2022-08-01T15:46:40;3.00;;;2.08;;
10303;SDS011;5197;48.152;8.590;2022-08-01T15:49:07;2.20;;;2.08;;
10303;SDS011;5197;48.152;8.590;2022-08-01T15:51:35;2.25;;;2.08;;
10303;SDS011;5197;48.152;8.590;2022-08-01T15:54:02;1.77;;;1.67;;
10303;SDS011;5197;48.152;8.590;2022-08-01T15:56:29;2.10;;;2.00;;
10303;SDS011;5197;48.152;8.590;2022-08-01T15:58:57;2.25;;;2.15;;
10303;SDS011;5197;48.152;8.590;2022-08-01T16:01:24;4.50;;;2.20;;
10303;SDS011;5197;48.152;8.590;2022-08-01T16:03:54;2.25;;;1.88;;
10303;SDS011;5197;48.152;8.590;2022-08-01T16:06:23;2.50;;;2.30;;
10303;SDS011;5197;48.152;8.590;2022-08-01T16:08:50;2.17;;;2.08;;
10303;SDS011;5197;48.152;8.590;2022-08-01T16:11:17;2.13;;;2.00;;
10303;SDS011;5197;48.152;8.590;2022-08-01T16:13:45;2.20;;;2.10;;
10303;SDS011;5197;48.152;8.590;2022-08-01T16:16:14;2.33;;;2.22;;
10303;SDS011;5197;48.152;8.590;2022-08-01T16:18:43;1.80;;;1.67;;
10303;SDS011;5197;48.152;8.590;2022-08-01T16:21:19;2.30;;;1.98;;
10303;SDS011;5197;48.152;8.590;2022-08-01T16:23:46;2.20;;;2.10;;
10303;SDS011;5197;48.152;8.590;2022-08-01T16:26:13;2.28;;;2.03;;